createdAt,value
2022-10-18T00:00:50.395Z,15.57
2022-10-18T00:01:50.437Z,15.57
2022-10-18T00:02:50.381Z,15.57
2022-10-18T00:03:50.353Z,15.57
2022-10-18T00:04:50.354Z,15.57
2022-10-18T00:05:50.371Z,15.56
2022-10-18T00:06:50.346Z,15.56
2022-10-18T00:07:50.338Z,15.56
2022-10-18T00:08:50.308Z,15.55
2022-10-18T00:09:50.299Z,15.55
2022-10-18T00:10:50.332Z,15.54
2022-10-18T00:11:50.289Z,15.54
2022-10-18T00:12:50.273Z,15.55
2022-10-18T00:13:50.239Z,15.55
2022-10-18T00:14:50.227Z,15.55
2022-10-18T00:15:50.234Z,15.56
2022-10-18T00:16:50.277Z,15.56
2022-10-18T00:17:50.205Z,15.57
2022-10-18T00:18:50.180Z,15.57
2022-10-18T00:19:50.166Z,15.57
2022-10-18T00:20:50.157Z,15.57
2022-10-18T00:21:50.151Z,15.57
2022-10-18T00:22:50.146Z,15.56
2022-10-18T00:23:50.122Z,15.56
2022-10-18T00:24:50.107Z,15.56
2022-10-18T00:25:50.101Z,15.56
2022-10-18T00:26:50.097Z,15.56
2022-10-18T00:27:50.089Z,15.57
2022-10-18T00:28:50.226Z,15.57
2022-10-18T00:29:50.061Z,15.57
2022-10-18T00:31:50.029Z,15.58
2022-10-18T00:32:50.030Z,15.59
2022-10-18T00:33:50.002Z,15.61
2022-10-18T00:34:49.987Z,15.61
2022-10-18T00:35:49.980Z,15.62
2022-10-18T00:36:49.993Z,15.63
2022-10-18T00:37:49.975Z,15.63
2022-10-18T00:38:49.971Z,15.63
2022-10-18T00:39:49.954Z,15.64
2022-10-18T00:40:49.920Z,15.64
2022-10-18T00:41:49.919Z,15.64
2022-10-18T00:42:49.913Z,15.63
2022-10-18T00:43:49.893Z,15.63
2022-10-18T00:44:49.872Z,15.63
2022-10-18T00:45:49.863Z,15.63
2022-10-18T00:46:49.866Z,15.64
2022-10-18T00:47:49.858Z,15.64
2022-10-18T00:48:49.905Z,15.63
2022-10-18T00:49:49.823Z,15.63
2022-10-18T00:50:49.804Z,15.62
2022-10-18T00:51:49.804Z,15.61
2022-10-18T00:52:49.789Z,15.61
2022-10-18T00:53:49.790Z,15.60
2022-10-18T00:54:49.771Z,15.61
2022-10-18T00:55:49.756Z,15.60
2022-10-18T00:56:49.757Z,15.61
2022-10-18T00:57:49.785Z,15.61
2022-10-18T00:58:49.756Z,15.61
2022-10-18T00:59:49.703Z,15.61
2022-10-18T01:00:49.692Z,15.62
2022-10-18T01:01:49.733Z,15.61
2022-10-18T01:02:49.663Z,15.60
2022-10-18T01:03:49.675Z,15.59
2022-10-18T01:04:49.639Z,15.58
2022-10-18T01:05:49.635Z,15.57
2022-10-18T01:06:49.648Z,15.57
2022-10-18T01:07:49.616Z,15.57
2022-10-18T01:08:49.596Z,15.57
2022-10-18T01:09:49.595Z,15.56
2022-10-18T01:10:49.569Z,15.56
2022-10-18T01:11:49.563Z,15.56
2022-10-18T01:12:49.536Z,15.56
2022-10-18T01:13:49.544Z,15.55
2022-10-18T01:14:49.545Z,15.55
2022-10-18T01:15:49.531Z,15.55
2022-10-18T01:16:49.516Z,15.55
2022-10-18T01:17:49.487Z,15.56
2022-10-18T01:18:49.475Z,15.56
2022-10-18T01:19:49.488Z,15.57
2022-10-18T01:20:49.458Z,15.57
2022-10-18T01:21:49.447Z,15.58
2022-10-18T01:22:49.428Z,15.59
2022-10-18T01:23:49.428Z,15.59
2022-10-18T01:24:49.461Z,15.59
2022-10-18T01:25:49.402Z,15.60
2022-10-18T01:26:49.430Z,15.60
2022-10-18T01:27:49.368Z,15.60
2022-10-18T01:28:49.483Z,15.61
2022-10-18T01:29:49.352Z,15.61
2022-10-18T01:30:49.355Z,15.61
2022-10-18T01:31:49.326Z,15.61
2022-10-18T01:32:49.321Z,15.61
2022-10-18T01:33:49.325Z,15.61
2022-10-18T01:34:49.294Z,15.60
2022-10-18T01:35:49.299Z,15.59
2022-10-18T01:36:49.288Z,15.59
2022-10-18T01:37:49.263Z,15.59
2022-10-18T01:38:49.251Z,15.59
2022-10-18T01:39:49.235Z,15.59
2022-10-18T01:40:49.211Z,15.60
2022-10-18T01:41:49.231Z,15.60
2022-10-18T01:42:49.192Z,15.60
2022-10-18T01:43:49.198Z,15.60
2022-10-18T01:44:49.222Z,15.60
2022-10-18T01:45:49.161Z,15.60
2022-10-18T01:46:49.187Z,15.61
2022-10-18T01:47:49.146Z,15.61
2022-10-18T01:48:49.144Z,15.60
2022-10-18T01:49:49.127Z,15.60
2022-10-18T01:50:49.125Z,15.59
2022-10-18T01:51:49.138Z,15.58
2022-10-18T01:52:49.086Z,15.57
2022-10-18T01:53:49.077Z,15.57
2022-10-18T01:54:49.110Z,15.57
2022-10-18T01:55:49.045Z,15.56
2022-10-18T01:56:49.074Z,15.56
2022-10-18T01:57:49.031Z,15.55
2022-10-18T01:58:49.001Z,15.53
2022-10-18T01:59:49.010Z,15.52
2022-10-18T02:00:48.984Z,15.51
2022-10-18T02:01:48.994Z,15.50
2022-10-18T02:02:48.963Z,15.49
2022-10-18T02:03:48.966Z,15.49
2022-10-18T02:04:48.942Z,15.49
2022-10-18T02:05:48.935Z,15.49
2022-10-18T02:06:48.936Z,15.49
2022-10-18T02:08:05.898Z,15.49
2022-10-18T02:08:49.897Z,15.50
2022-10-18T02:09:48.893Z,15.50
2022-10-18T02:10:48.874Z,15.50
2022-10-18T02:11:48.868Z,15.50
2022-10-18T02:12:48.884Z,15.50
2022-10-18T02:13:48.834Z,15.51
2022-10-18T02:14:48.814Z,15.51
2022-10-18T02:15:48.816Z,15.51
2022-10-18T02:16:48.819Z,15.51
2022-10-18T02:17:48.786Z,15.51
2022-10-18T02:18:48.797Z,15.52
2022-10-18T02:19:48.763Z,15.52
2022-10-18T02:20:48.759Z,15.52
2022-10-18T02:21:48.746Z,15.52
2022-10-18T02:22:48.736Z,15.52
2022-10-18T02:23:48.746Z,15.53
2022-10-18T02:24:48.711Z,15.53
2022-10-18T02:25:48.716Z,15.53
2022-10-18T02:26:48.696Z,15.53
2022-10-18T02:27:48.688Z,15.53
2022-10-18T02:28:48.678Z,15.53
2022-10-18T02:29:48.658Z,15.53
2022-10-18T02:30:48.637Z,15.53
2022-10-18T02:31:48.709Z,15.53
2022-10-18T02:32:48.620Z,15.53
2022-10-18T02:33:48.627Z,15.52
2022-10-18T02:34:48.594Z,15.52
2022-10-18T02:35:48.587Z,15.52
2022-10-18T02:36:48.581Z,15.52
2022-10-18T02:37:48.559Z,15.52
2022-10-18T02:38:48.561Z,15.53
2022-10-18T02:39:48.529Z,15.53
2022-10-18T02:40:48.516Z,15.54
2022-10-18T02:41:48.518Z,15.54
2022-10-18T02:42:48.500Z,15.55
2022-10-18T02:43:48.493Z,15.55
2022-10-18T02:44:48.492Z,15.55
2022-10-18T02:45:48.462Z,15.55
2022-10-18T02:46:48.474Z,15.55
2022-10-18T02:47:48.456Z,15.55
2022-10-18T02:48:48.448Z,15.55
2022-10-18T02:49:48.452Z,15.54
2022-10-18T02:50:48.402Z,15.54
2022-10-18T02:51:48.441Z,15.53
2022-10-18T02:52:48.382Z,15.53
2022-10-18T02:53:48.380Z,15.53
2022-10-18T02:54:48.373Z,15.52
2022-10-18T02:55:48.370Z,15.52
2022-10-18T02:56:48.358Z,15.51
2022-10-18T02:57:48.330Z,15.51
2022-10-18T02:58:48.325Z,15.50
2022-10-18T02:59:48.302Z,15.50
2022-10-18T03:00:48.311Z,15.49
2022-10-18T03:01:48.311Z,15.49
2022-10-18T03:02:48.275Z,15.49
2022-10-18T03:03:48.254Z,15.50
2022-10-18T03:04:48.244Z,15.50
2022-10-18T03:05:48.263Z,15.50
2022-10-18T03:06:48.239Z,15.50
2022-10-18T03:07:48.214Z,15.50
2022-10-18T03:08:48.211Z,15.51
2022-10-18T03:09:48.189Z,15.51
2022-10-18T03:10:48.186Z,15.50
2022-10-18T03:11:48.167Z,15.50
2022-10-18T03:12:48.153Z,15.50
2022-10-18T03:13:48.146Z,15.50
2022-10-18T03:14:48.136Z,15.50
2022-10-18T03:15:48.123Z,15.50
2022-10-18T03:16:48.136Z,15.49
2022-10-18T03:17:48.093Z,15.49
2022-10-18T03:18:48.163Z,15.49
2022-10-18T03:19:48.075Z,15.48
2022-10-18T03:20:48.057Z,15.48
2022-10-18T03:21:48.061Z,15.49
2022-10-18T03:22:48.039Z,15.49
2022-10-18T03:23:48.026Z,15.49
2022-10-18T03:24:48.008Z,15.49
2022-10-18T03:25:48.000Z,15.49
2022-10-18T03:26:48.006Z,15.49
2022-10-18T03:27:48.005Z,15.50
2022-10-18T03:28:48.029Z,15.50
2022-10-18T03:29:47.960Z,15.51
2022-10-18T03:30:47.950Z,15.52
2022-10-18T03:31:47.936Z,15.52
2022-10-18T03:32:47.929Z,15.52
2022-10-18T03:33:47.913Z,15.53
2022-10-18T03:34:47.900Z,15.53
2022-10-18T03:35:47.880Z,15.53
2022-10-18T03:36:47.890Z,15.53
2022-10-18T03:37:47.878Z,15.53
2022-10-18T03:38:47.847Z,15.53
2022-10-18T03:39:47.841Z,15.53
2022-10-18T03:40:47.820Z,15.53
2022-10-18T03:41:47.829Z,15.52
2022-10-18T03:42:47.811Z,15.52
2022-10-18T03:43:47.830Z,15.52
2022-10-18T03:44:47.783Z,15.52
2022-10-18T03:45:47.775Z,15.51
2022-10-18T03:46:47.770Z,15.50
2022-10-18T03:47:47.749Z,15.50
2022-10-18T03:48:47.763Z,15.49
2022-10-18T03:49:49.161Z,15.49
2022-10-18T03:50:47.710Z,15.49
2022-10-18T03:51:47.703Z,15.49
2022-10-18T03:52:47.691Z,15.49
2022-10-18T03:53:47.679Z,15.48
2022-10-18T03:54:47.681Z,15.48
2022-10-18T03:55:47.652Z,15.48
2022-10-18T03:56:47.653Z,15.48
2022-10-18T03:57:47.632Z,15.47
2022-10-18T03:58:47.630Z,15.47
2022-10-18T03:59:47.623Z,15.46
2022-10-18T04:00:47.599Z,15.46
2022-10-18T04:01:47.635Z,15.46
2022-10-18T04:02:50.680Z,15.46
2022-10-18T04:03:48.573Z,15.45
2022-10-18T04:04:47.562Z,15.46
2022-10-18T04:05:47.542Z,15.46
2022-10-18T04:06:47.544Z,15.46
2022-10-18T04:07:47.513Z,15.46
2022-10-18T04:08:47.510Z,15.46
2022-10-18T04:09:47.507Z,15.46
2022-10-18T04:10:47.484Z,15.45
2022-10-18T04:11:47.484Z,15.45
2022-10-18T04:12:47.464Z,15.45
2022-10-18T04:13:47.447Z,15.44
2022-10-18T04:14:47.437Z,15.43
2022-10-18T04:15:47.440Z,15.42
2022-10-18T04:16:47.429Z,15.42
2022-10-18T04:17:47.405Z,15.41
2022-10-18T04:18:47.394Z,15.40
2022-10-18T04:19:47.365Z,15.39
2022-10-18T04:20:47.384Z,15.37
2022-10-18T04:21:47.348Z,15.35
2022-10-18T04:22:47.343Z,15.33
2022-10-18T04:23:47.327Z,15.32
2022-10-18T04:24:47.315Z,15.30
2022-10-18T04:25:47.301Z,15.29
2022-10-18T04:26:47.322Z,15.27
2022-10-18T04:27:47.279Z,15.26
2022-10-18T04:28:47.339Z,15.24
2022-10-18T04:29:47.255Z,15.22
2022-10-18T04:30:47.258Z,15.20
2022-10-18T04:31:47.249Z,15.18
2022-10-18T04:32:47.223Z,15.16
2022-10-18T04:33:47.206Z,15.14
2022-10-18T04:34:47.201Z,15.12
2022-10-18T04:35:47.186Z,15.11
2022-10-18T04:36:47.239Z,15.11
2022-10-18T04:37:47.163Z,15.10
2022-10-18T04:38:47.158Z,15.10
2022-10-18T04:39:49.926Z,15.09
2022-10-18T04:40:48.131Z,15.09
2022-10-18T04:41:47.131Z,15.09
2022-10-18T04:42:47.108Z,15.09
2022-10-18T04:43:47.102Z,15.09
2022-10-18T04:44:47.082Z,15.09
2022-10-18T04:45:47.072Z,15.10
2022-10-18T04:46:47.226Z,15.10
2022-10-18T04:47:47.067Z,15.10
2022-10-18T04:48:47.030Z,15.10
2022-10-18T04:49:47.031Z,15.11
2022-10-18T04:50:47.014Z,15.11
2022-10-18T04:51:47.001Z,15.11
2022-10-18T04:52:47.022Z,15.12
2022-10-18T04:53:46.981Z,15.12
2022-10-18T04:54:46.964Z,15.12
2022-10-18T04:55:46.951Z,15.12
2022-10-18T04:56:47.122Z,15.12
2022-10-18T04:57:46.928Z,15.12
2022-10-18T04:58:46.942Z,15.12
2022-10-18T04:59:46.902Z,15.12
2022-10-18T05:00:46.883Z,15.12
2022-10-18T05:01:46.962Z,15.12
2022-10-18T05:02:46.875Z,15.12
2022-10-18T05:03:46.869Z,15.11
2022-10-18T05:04:46.841Z,15.11
2022-10-18T05:06:02.831Z,15.11
2022-10-18T05:06:47.843Z,15.10
2022-10-18T05:07:46.803Z,15.09
2022-10-18T05:08:46.797Z,15.09
2022-10-18T05:09:46.792Z,15.09
2022-10-18T05:10:46.774Z,15.09
2022-10-18T05:11:46.762Z,15.08
2022-10-18T05:12:46.765Z,15.08
2022-10-18T05:13:48.601Z,15.08
2022-10-18T05:14:46.744Z,15.08
2022-10-18T05:15:46.713Z,15.09
2022-10-18T05:16:46.702Z,15.09
2022-10-18T05:17:46.694Z,15.09
2022-10-18T05:18:46.683Z,15.09
2022-10-18T05:19:46.663Z,15.08
2022-10-18T05:20:46.675Z,15.08
2022-10-18T05:21:46.643Z,15.07
2022-10-18T05:22:46.636Z,15.07
2022-10-18T05:23:46.617Z,15.06
2022-10-18T05:24:46.608Z,15.06
2022-10-18T05:25:46.607Z,15.05
2022-10-18T05:26:46.579Z,15.04
2022-10-18T05:27:46.568Z,15.04
2022-10-18T05:28:46.592Z,15.03
2022-10-18T05:29:46.565Z,15.03
2022-10-18T05:30:46.546Z,15.03
2022-10-18T05:31:46.538Z,15.04
2022-10-18T05:32:46.519Z,15.04
2022-10-18T05:33:46.500Z,15.04
2022-10-18T05:34:46.496Z,15.04
2022-10-18T05:35:46.480Z,15.04
2022-10-18T05:36:46.476Z,15.04
2022-10-18T05:37:46.441Z,15.05
2022-10-18T05:38:46.449Z,15.05
2022-10-18T05:39:46.428Z,15.04
2022-10-18T05:40:46.420Z,15.04
2022-10-18T05:41:46.417Z,15.04
2022-10-18T05:42:46.391Z,15.04
2022-10-18T05:43:46.388Z,15.04
2022-10-18T05:44:46.381Z,15.04
2022-10-18T05:45:46.390Z,15.04
2022-10-18T05:46:46.378Z,15.05
2022-10-18T05:47:46.332Z,15.05
2022-10-18T05:48:46.320Z,15.05
2022-10-18T05:49:46.309Z,15.04
2022-10-18T05:50:46.296Z,15.04
2022-10-18T05:51:46.283Z,15.04
2022-10-18T05:52:46.297Z,15.04
2022-10-18T05:53:46.261Z,15.03
2022-10-18T05:54:46.257Z,15.03
2022-10-18T05:55:46.229Z,15.02
2022-10-18T05:56:46.231Z,15.02
2022-10-18T05:57:46.228Z,15.02
2022-10-18T05:58:46.220Z,15.02
2022-10-18T05:59:46.199Z,15.02
2022-10-18T06:00:46.171Z,15.02
2022-10-18T06:01:46.181Z,15.02
2022-10-18T06:02:46.193Z,15.01
2022-10-18T06:03:46.156Z,15.01
2022-10-18T06:04:46.135Z,15.02
2022-10-18T06:05:46.126Z,15.02
2022-10-18T06:06:46.109Z,15.03
2022-10-18T06:07:46.093Z,15.03
2022-10-18T06:08:46.125Z,15.03
2022-10-18T06:09:46.074Z,15.03
2022-10-18T06:10:46.066Z,15.03
2022-10-18T06:11:46.058Z,15.03
2022-10-18T06:12:46.048Z,15.02
2022-10-18T06:13:46.041Z,15.02
2022-10-18T06:14:46.021Z,15.01
2022-10-18T06:15:46.008Z,15.01
2022-10-18T06:16:45.999Z,15.01
2022-10-18T06:17:45.985Z,15.01
2022-10-18T06:18:45.966Z,15.02
2022-10-18T06:19:45.972Z,15.02
2022-10-18T06:20:45.954Z,15.02
2022-10-18T06:21:45.934Z,15.03
2022-10-18T06:22:45.925Z,15.03
2022-10-18T06:23:45.905Z,15.03
2022-10-18T06:24:45.922Z,15.03
2022-10-18T06:25:45.884Z,15.03
2022-10-18T06:26:45.876Z,15.02
2022-10-18T06:27:45.889Z,15.02
2022-10-18T06:28:45.907Z,15.02
2022-10-18T06:29:45.857Z,15.02
2022-10-18T06:30:45.826Z,15.02
2022-10-18T06:31:45.835Z,15.03
2022-10-18T06:32:45.807Z,15.03
2022-10-18T06:33:45.808Z,15.04
2022-10-18T06:34:45.793Z,15.04
2022-10-18T06:35:45.788Z,15.05
2022-10-18T06:36:45.764Z,15.06
2022-10-18T06:37:45.757Z,15.06
2022-10-18T06:38:45.753Z,15.07
2022-10-18T06:39:45.715Z,15.07
2022-10-18T06:40:45.726Z,15.08
2022-10-18T06:41:45.697Z,15.08
2022-10-18T06:42:55.122Z,15.09
2022-10-18T06:43:46.678Z,15.09
2022-10-18T06:44:45.660Z,15.09
2022-10-18T06:45:45.668Z,15.09
2022-10-18T06:46:45.648Z,15.09
2022-10-18T06:47:45.649Z,15.09
2022-10-18T06:48:45.619Z,15.09
2022-10-18T06:49:45.611Z,15.09
2022-10-18T06:50:45.604Z,15.09
2022-10-18T06:51:45.598Z,15.09
2022-10-18T06:52:45.581Z,15.10
2022-10-18T06:53:59.034Z,15.10
2022-10-18T06:54:46.552Z,15.10
2022-10-18T06:55:45.534Z,15.10
2022-10-18T06:56:45.550Z,15.10
2022-10-18T06:57:45.514Z,15.10
2022-10-18T06:58:45.554Z,15.11
2022-10-18T06:59:45.489Z,15.11
2022-10-18T07:00:45.478Z,15.12
2022-10-18T07:01:45.543Z,15.12
2022-10-18T07:02:45.472Z,15.13
2022-10-18T07:03:45.454Z,15.13
2022-10-18T07:04:45.439Z,15.14
2022-10-18T07:05:45.410Z,15.14
2022-10-18T07:06:45.411Z,15.14
2022-10-18T07:07:45.407Z,15.15
2022-10-18T07:08:45.383Z,15.15
2022-10-18T07:09:45.363Z,15.15
2022-10-18T07:10:45.361Z,15.15
2022-10-18T07:11:45.366Z,15.15
2022-10-18T07:12:45.362Z,15.16
2022-10-18T07:13:45.333Z,15.16
2022-10-18T07:14:45.299Z,15.17
2022-10-18T07:15:45.311Z,15.17
2022-10-18T07:16:45.287Z,15.18
2022-10-18T07:17:45.283Z,15.18
2022-10-18T07:18:45.294Z,15.18
2022-10-18T07:19:45.255Z,15.18
2022-10-18T07:20:45.241Z,15.18
2022-10-18T07:21:45.233Z,15.19
2022-10-18T07:22:45.217Z,15.19
2022-10-18T07:23:45.224Z,15.19
2022-10-18T07:24:45.202Z,15.20
2022-10-18T07:25:45.195Z,15.20
2022-10-18T07:26:45.164Z,15.20
2022-10-18T07:27:45.175Z,15.19
2022-10-18T07:28:45.181Z,15.19
2022-10-18T07:29:45.155Z,15.19
2022-10-18T07:30:45.136Z,15.19
2022-10-18T07:31:45.124Z,15.19
2022-10-18T07:32:45.105Z,15.19
2022-10-18T07:33:45.098Z,15.20
2022-10-18T07:34:45.110Z,15.20
2022-10-18T07:35:45.068Z,15.21
2022-10-18T07:36:45.070Z,15.21
2022-10-18T07:37:45.053Z,15.22
2022-10-18T07:38:45.044Z,15.22
2022-10-18T07:39:45.041Z,15.23
2022-10-18T07:40:45.020Z,15.24
2022-10-18T07:41:44.993Z,15.24
2022-10-18T07:42:44.999Z,15.25
2022-10-18T07:43:44.976Z,15.25
2022-10-18T07:44:44.977Z,15.26
2022-10-18T07:45:44.968Z,15.27
2022-10-18T07:46:44.947Z,15.28
2022-10-18T07:47:44.928Z,15.29
2022-10-18T07:48:44.918Z,15.30
2022-10-18T07:49:44.903Z,15.31
2022-10-18T07:50:44.909Z,15.32
2022-10-18T07:51:44.894Z,15.33
2022-10-18T07:52:44.888Z,15.34
2022-10-18T07:53:44.859Z,15.35
2022-10-18T07:54:44.911Z,15.36
2022-10-18T07:55:44.843Z,15.36
2022-10-18T07:56:44.856Z,15.37
2022-10-18T07:57:44.800Z,15.37
2022-10-18T07:58:44.809Z,15.38
2022-10-18T07:59:44.797Z,15.39
2022-10-18T08:00:44.790Z,15.41
2022-10-18T08:01:44.806Z,15.42
2022-10-18T08:02:44.763Z,15.43
2022-10-18T08:03:44.750Z,15.44
2022-10-18T08:04:44.740Z,15.44
2022-10-18T08:05:44.719Z,15.45
2022-10-18T08:06:44.730Z,15.46
2022-10-18T08:07:44.690Z,15.48
2022-10-18T08:08:44.694Z,15.49
2022-10-18T08:09:44.672Z,15.49
2022-10-18T08:10:44.667Z,15.50
2022-10-18T08:11:44.669Z,15.50
2022-10-18T08:12:44.637Z,15.50
2022-10-18T08:13:44.634Z,15.50
2022-10-18T08:14:44.620Z,15.50
2022-10-18T08:15:44.593Z,15.49
2022-10-18T08:16:44.614Z,15.47
2022-10-18T08:17:44.585Z,15.47
2022-10-18T08:18:44.577Z,15.46
2022-10-18T08:19:52.911Z,15.47
2022-10-18T08:20:45.545Z,15.47
2022-10-18T08:21:44.582Z,15.48
2022-10-18T08:22:44.529Z,15.49
2022-10-18T08:23:44.509Z,15.51
2022-10-18T08:24:44.500Z,15.53
2022-10-18T08:25:44.484Z,15.55
2022-10-18T08:26:44.476Z,15.57
2022-10-18T08:27:44.484Z,15.59
2022-10-18T08:28:53.582Z,15.60
2022-10-18T08:29:45.533Z,15.62
2022-10-18T08:30:44.424Z,15.63
2022-10-18T08:31:44.425Z,15.64
2022-10-18T08:32:44.416Z,15.65
2022-10-18T08:33:44.405Z,15.66
2022-10-18T08:34:44.388Z,15.68
2022-10-18T08:35:44.378Z,15.70
2022-10-18T08:36:44.367Z,15.72
2022-10-18T08:37:44.347Z,15.74
2022-10-18T08:38:44.343Z,15.76
2022-10-18T08:39:44.336Z,15.79
2022-10-18T08:40:44.330Z,15.81
2022-10-18T08:41:44.298Z,15.83
2022-10-18T08:42:44.290Z,15.85
2022-10-18T08:43:44.278Z,15.87
2022-10-18T08:44:44.292Z,15.90
2022-10-18T08:45:44.277Z,15.94
2022-10-18T08:46:44.273Z,15.97
2022-10-18T08:47:44.241Z,16.00
2022-10-18T08:48:44.238Z,16.03
2022-10-18T08:49:46.891Z,16.09
2022-10-18T08:50:44.197Z,16.14
2022-10-18T08:51:44.193Z,16.20
2022-10-18T08:52:44.171Z,16.26
2022-10-18T08:53:44.167Z,16.32
2022-10-18T08:54:44.176Z,16.37
2022-10-18T08:55:44.137Z,16.40
2022-10-18T08:56:44.128Z,16.43
2022-10-18T08:57:44.119Z,16.45
2022-10-18T08:58:44.100Z,16.48
2022-10-18T08:59:44.089Z,16.51
2022-10-18T09:00:44.093Z,16.53
2022-10-18T09:01:44.163Z,16.55
2022-10-18T09:02:44.072Z,16.57
2022-10-18T09:03:44.090Z,16.58
2022-10-18T09:04:44.039Z,16.59
2022-10-18T09:05:44.051Z,16.58
2022-10-18T09:06:44.010Z,16.57
2022-10-18T09:07:43.994Z,16.55
2022-10-18T09:08:43.986Z,16.53
2022-10-18T09:09:43.977Z,16.52
2022-10-18T09:10:43.978Z,16.52
2022-10-18T09:11:43.962Z,16.52
2022-10-18T09:12:43.945Z,16.52
2022-10-18T09:13:43.929Z,16.53
2022-10-18T09:14:44.447Z,16.53
2022-10-18T09:15:43.914Z,16.54
2022-10-18T09:16:43.920Z,16.55
2022-10-18T09:17:43.884Z,16.58
2022-10-18T09:18:43.878Z,16.60
2022-10-18T09:19:43.858Z,16.61
2022-10-18T09:20:43.855Z,16.62
2022-10-18T09:21:43.833Z,16.64
2022-10-18T09:22:43.834Z,16.66
2022-10-18T09:23:43.814Z,16.67
2022-10-18T09:24:43.796Z,16.69
2022-10-18T09:26:43.541Z,17.84
2022-10-18T09:27:43.545Z,17.42
2022-10-18T09:28:43.562Z,17.15
2022-10-18T09:29:43.516Z,17.00
2022-10-18T09:30:43.488Z,16.91
2022-10-18T09:31:43.487Z,16.85
2022-10-18T09:32:43.497Z,16.82
2022-10-18T09:33:43.458Z,16.81
2022-10-18T09:34:43.460Z,16.80
2022-10-18T09:35:43.440Z,16.79
2022-10-18T09:36:43.430Z,16.80
2022-10-18T09:37:43.416Z,16.80
2022-10-18T09:38:43.421Z,16.80
2022-10-18T09:39:43.399Z,16.80
2022-10-18T09:40:43.386Z,16.81
2022-10-18T09:41:43.372Z,16.83
2022-10-18T09:42:43.356Z,16.84
2022-10-18T09:43:43.363Z,16.84
2022-10-18T09:44:43.343Z,16.85
2022-10-18T09:45:43.326Z,16.85
2022-10-18T09:46:43.341Z,16.86
2022-10-18T09:47:43.302Z,16.89
2022-10-18T09:48:43.321Z,16.91
2022-10-18T09:49:43.280Z,16.94
2022-10-18T09:50:43.273Z,16.96
2022-10-18T09:51:43.263Z,16.97
2022-10-18T09:52:43.244Z,16.98
2022-10-18T09:53:43.253Z,16.99
2022-10-18T09:54:43.222Z,17.00
2022-10-18T09:55:43.226Z,17.00
2022-10-18T09:56:43.234Z,17.01
2022-10-18T09:57:43.196Z,17.03
2022-10-18T09:58:43.187Z,17.06
2022-10-18T09:59:43.191Z,17.07
2022-10-18T10:00:43.154Z,17.09
2022-10-18T10:01:43.155Z,17.11
2022-10-18T10:02:43.206Z,17.13
2022-10-18T10:03:43.123Z,17.15
2022-10-18T10:04:43.119Z,17.18
2022-10-18T10:05:43.127Z,17.20
2022-10-18T10:06:43.093Z,17.21
2022-10-18T10:07:43.079Z,17.21
2022-10-18T10:08:43.077Z,17.23
2022-10-18T10:09:43.057Z,17.27
2022-10-18T10:10:43.067Z,17.31
2022-10-18T10:11:43.036Z,17.35
2022-10-18T10:12:43.029Z,17.40
2022-10-18T10:13:43.036Z,17.45
2022-10-18T10:14:43.023Z,17.50
2022-10-18T10:15:43.024Z,17.55
2022-10-18T10:16:42.988Z,17.59
2022-10-18T10:17:42.968Z,17.63
2022-10-18T10:18:42.956Z,17.67
2022-10-18T10:19:42.942Z,17.70
2022-10-18T10:20:42.953Z,17.72
2022-10-18T10:21:42.914Z,17.73
2022-10-18T10:22:42.907Z,17.73
2022-10-18T10:23:42.897Z,17.74
2022-10-18T10:24:42.888Z,17.74
2022-10-18T10:25:42.870Z,17.75
2022-10-18T10:26:42.885Z,17.76
2022-10-18T10:27:42.849Z,17.77
2022-10-18T10:28:42.886Z,17.80
2022-10-18T10:29:44.721Z,17.82
2022-10-18T10:30:42.817Z,17.84
2022-10-18T10:31:42.816Z,17.85
2022-10-18T10:32:42.804Z,17.85
2022-10-18T10:33:42.793Z,17.84
2022-10-18T10:34:44.792Z,17.83
2022-10-18T10:35:53.085Z,17.82
2022-10-18T10:36:43.792Z,17.80
2022-10-18T10:37:42.734Z,17.78
2022-10-18T10:38:42.736Z,17.76
2022-10-18T10:39:42.944Z,17.75
2022-10-18T10:40:43.701Z,17.74
2022-10-18T10:41:42.696Z,17.73
2022-10-18T10:42:42.691Z,17.72
2022-10-18T10:43:42.664Z,17.72
2022-10-18T10:44:42.661Z,17.71
2022-10-18T10:45:42.681Z,17.69
2022-10-18T10:46:42.635Z,17.67
2022-10-18T10:47:42.643Z,17.65
2022-10-18T10:48:42.638Z,17.66
2022-10-18T10:49:42.608Z,17.67
2022-10-18T10:50:42.587Z,17.70
2022-10-18T10:51:42.585Z,17.73
2022-10-18T10:52:42.852Z,17.76
2022-10-18T10:53:42.562Z,17.77
2022-10-18T10:54:42.593Z,17.77
2022-10-18T10:55:42.542Z,17.76
2022-10-18T10:56:42.525Z,17.75
2022-10-18T10:57:42.525Z,17.73
2022-10-18T10:58:42.503Z,17.71
2022-10-18T10:59:42.498Z,17.69
2022-10-18T11:00:42.481Z,17.68
2022-10-18T11:01:42.490Z,17.66
2022-10-18T11:02:51.126Z,17.65
2022-10-18T11:03:43.501Z,17.64
2022-10-18T11:04:42.444Z,17.63
2022-10-18T11:05:42.411Z,17.62
2022-10-18T11:06:42.406Z,17.61
2022-10-18T11:07:42.407Z,17.61
2022-10-18T11:08:42.444Z,17.61
2022-10-18T11:09:42.368Z,17.62
2022-10-18T11:10:42.364Z,17.63
2022-10-18T11:11:42.350Z,17.64
2022-10-18T11:12:42.341Z,17.65
2022-10-18T11:13:42.341Z,17.66
2022-10-18T11:14:42.312Z,17.66
2022-10-18T11:15:42.308Z,17.67
2022-10-18T11:16:42.293Z,17.67
2022-10-18T11:17:42.333Z,17.69
2022-10-18T11:18:42.287Z,17.71
2022-10-18T11:19:42.281Z,17.73
2022-10-18T11:20:42.240Z,17.75
2022-10-18T11:21:42.233Z,17.77
2022-10-18T11:22:42.227Z,17.79
2022-10-18T11:23:42.221Z,17.82
2022-10-18T11:24:42.203Z,17.85
2022-10-18T11:25:42.183Z,17.86
2022-10-18T11:26:43.711Z,17.86
2022-10-18T11:27:42.170Z,17.85
2022-10-18T11:28:42.198Z,17.85
2022-10-18T11:29:42.163Z,17.85
2022-10-18T11:30:42.137Z,17.86
2022-10-18T11:31:42.120Z,17.86
2022-10-18T11:32:42.120Z,17.86
2022-10-18T11:34:07.136Z,17.87
2022-10-18T11:34:43.111Z,17.88
2022-10-18T11:35:42.082Z,17.89
2022-10-18T11:36:49.358Z,17.88
2022-10-18T11:37:43.323Z,17.87
2022-10-18T11:38:42.046Z,17.86
2022-10-18T11:39:42.032Z,17.86
2022-10-18T11:40:42.042Z,17.86
2022-10-18T11:41:42.018Z,17.86
2022-10-18T11:42:42.010Z,17.86
2022-10-18T11:44:01.097Z,17.87
2022-10-18T11:44:42.972Z,17.87
2022-10-18T11:45:41.966Z,17.87
2022-10-18T11:46:41.980Z,17.86
2022-10-18T11:47:41.946Z,17.86
2022-10-18T11:48:41.928Z,17.86
2022-10-18T11:49:41.915Z,17.86
2022-10-18T11:50:41.905Z,17.87
2022-10-18T11:51:56.321Z,17.89
2022-10-18T11:52:42.966Z,17.89
2022-10-18T11:53:41.885Z,17.88
2022-10-18T11:54:41.868Z,17.86
2022-10-18T11:55:41.854Z,17.85
2022-10-18T11:56:41.847Z,17.85
2022-10-18T11:57:41.848Z,17.85
2022-10-18T11:58:41.814Z,17.85
2022-10-18T11:59:41.807Z,17.86
2022-10-18T12:00:41.794Z,17.86
2022-10-18T12:01:41.787Z,17.85
2022-10-18T12:02:41.813Z,17.84
2022-10-18T12:03:41.759Z,17.84
2022-10-18T12:04:49.126Z,17.84
2022-10-18T12:05:42.819Z,17.85
2022-10-18T12:06:41.727Z,17.86
2022-10-18T12:07:41.735Z,17.88
2022-10-18T12:08:41.709Z,17.91
2022-10-18T12:09:41.739Z,17.95
2022-10-18T12:11:00.017Z,17.98
2022-10-18T12:11:45.417Z,18.01
2022-10-18T12:12:41.655Z,18.05
2022-10-18T12:13:41.662Z,18.09
2022-10-18T12:14:41.638Z,18.13
2022-10-18T12:15:41.621Z,18.15
2022-10-18T12:17:20.372Z,18.15
2022-10-18T12:17:47.715Z,18.15
2022-10-18T12:18:42.640Z,18.15
2022-10-18T12:19:41.591Z,18.16
2022-10-18T12:20:41.578Z,18.17
2022-10-18T12:21:41.561Z,18.17
2022-10-18T12:22:41.589Z,18.17
2022-10-18T12:23:41.538Z,18.15
2022-10-18T12:24:41.581Z,18.12
2022-10-18T12:25:41.519Z,18.10
2022-10-18T12:26:41.506Z,18.08
2022-10-18T12:27:41.481Z,18.05
2022-10-18T12:28:41.490Z,18.03
2022-10-18T12:29:42.123Z,18.01
2022-10-18T12:30:41.462Z,17.99
2022-10-18T12:31:41.443Z,17.97
2022-10-18T12:32:51.636Z,17.97
2022-10-18T12:33:42.422Z,17.96
2022-10-18T12:34:41.407Z,17.96
2022-10-18T12:35:41.416Z,17.96
2022-10-18T12:36:41.405Z,17.94
2022-10-18T12:37:41.378Z,17.93
2022-10-18T12:38:41.373Z,17.91
2022-10-18T12:39:44.148Z,17.89
2022-10-18T12:40:42.353Z,17.87
2022-10-18T12:41:41.324Z,17.84
2022-10-18T12:42:41.325Z,17.81
2022-10-18T12:43:41.307Z,17.80
2022-10-18T12:44:41.303Z,17.79
2022-10-18T12:45:41.280Z,17.78
2022-10-18T12:46:41.295Z,17.78
2022-10-18T12:47:41.278Z,17.79
2022-10-18T12:48:41.249Z,17.80
2022-10-18T12:49:42.706Z,17.81
2022-10-18T12:50:41.238Z,17.81
2022-10-18T12:51:41.236Z,17.81
2022-10-18T12:52:41.217Z,17.82
2022-10-18T12:53:41.197Z,17.83
2022-10-18T12:54:41.196Z,17.85